createdAt,value
2022-09-07T00:00:39.027Z,1.55
2022-09-07T00:03:05.899Z,2.13
2022-09-07T00:05:32.886Z,1.60
2022-09-07T00:10:26.820Z,1.77
2022-09-07T00:12:53.640Z,1.70
2022-09-07T00:15:20.377Z,1.60
2022-09-07T00:20:13.227Z,1.70
2022-09-07T00:22:39.783Z,1.45
2022-09-07T00:25:06.647Z,1.73
2022-09-07T00:27:33.117Z,1.90
2022-09-07T00:30:00.830Z,1.48
2022-09-07T00:32:27.305Z,1.80
2022-09-07T00:34:53.870Z,1.60
2022-09-07T00:37:20.372Z,1.60
2022-09-07T00:39:47.064Z,1.58
2022-09-07T00:44:42.841Z,1.67
2022-09-07T00:47:38.786Z,1.77
2022-09-07T00:50:16.287Z,1.88
2022-09-07T00:52:45.896Z,1.48
2022-09-07T00:55:16.049Z,1.92
2022-09-07T00:57:47.771Z,1.90
2022-09-07T01:00:14.428Z,1.65
2022-09-07T01:02:42.554Z,1.52
2022-09-07T01:05:31.846Z,1.42
2022-09-07T01:07:58.664Z,1.35
2022-09-07T01:12:53.074Z,1.70
2022-09-07T01:15:22.574Z,1.73
2022-09-07T01:18:01.807Z,1.48
2022-09-07T01:20:40.042Z,1.60
2022-09-07T01:23:56.114Z,1.45
2022-09-07T01:26:47.361Z,1.60
2022-09-07T01:29:23.660Z,1.63
2022-09-07T01:32:16.836Z,1.52
2022-09-07T01:34:50.757Z,1.40
2022-09-07T01:37:40.595Z,1.83
2022-09-07T01:40:13.538Z,1.83
2022-09-07T01:42:56.151Z,1.63
2022-09-07T01:45:28.833Z,1.58
2022-09-07T01:48:04.056Z,1.80
2022-09-07T01:50:55.406Z,2.00
2022-09-07T01:53:28.081Z,1.80
2022-09-07T01:55:57.417Z,1.60
2022-09-07T01:58:50.747Z,1.60
2022-09-07T02:01:24.268Z,1.75
2022-09-07T02:04:17.339Z,1.58
2022-09-07T02:06:57.346Z,1.52
2022-09-07T02:09:46.016Z,1.25
2022-09-07T02:12:46.668Z,1.73
2022-09-07T02:15:37.139Z,1.60
2022-09-07T02:18:07.458Z,1.55
2022-09-07T02:20:39.282Z,1.30
2022-09-07T02:23:17.270Z,1.80
2022-09-07T02:25:48.789Z,2.00
2022-09-07T02:28:20.649Z,1.85
2022-09-07T02:30:47.219Z,1.80
2022-09-07T02:33:13.864Z,1.85
2022-09-07T02:35:40.871Z,1.30
2022-09-07T02:38:08.059Z,1.80
2022-09-07T02:40:34.851Z,2.00
2022-09-07T02:45:46.444Z,1.65
2022-09-07T02:48:49.893Z,1.42
2022-09-07T02:51:33.889Z,1.73
2022-09-07T02:54:18.580Z,1.48
2022-09-07T02:56:59.005Z,1.65
2022-09-07T02:59:56.321Z,1.60
2022-09-07T03:02:53.731Z,1.52
2022-09-07T03:05:23.176Z,2.10
2022-09-07T03:08:01.356Z,1.65
2022-09-07T03:10:28.826Z,2.45
2022-09-07T03:12:55.308Z,2.20
2022-09-07T03:15:25.289Z,1.70
2022-09-07T03:17:52.530Z,1.70
2022-09-07T03:20:20.065Z,1.88
2022-09-07T03:22:48.239Z,1.90
2022-09-07T03:25:15.416Z,2.20
2022-09-07T03:27:41.979Z,1.75
2022-09-07T03:30:10.538Z,1.70
2022-09-07T03:32:38.531Z,1.80
2022-09-07T03:35:06.960Z,2.10
2022-09-07T03:37:36.299Z,2.10
2022-09-07T03:40:04.763Z,1.83
2022-09-07T03:42:31.279Z,1.90
2022-09-07T03:44:57.735Z,1.70
2022-09-07T03:47:24.292Z,1.85
2022-09-07T03:49:51.832Z,1.77
2022-09-07T03:52:18.581Z,1.90
2022-09-07T03:57:11.851Z,1.63
2022-09-07T04:02:05.125Z,2.13
2022-09-07T04:06:58.018Z,1.90
2022-09-07T04:09:27.206Z,1.80
2022-09-07T04:11:53.716Z,2.13
2022-09-07T04:14:20.350Z,1.90
2022-09-07T04:16:47.036Z,1.98
2022-09-07T04:21:40.011Z,1.58
2022-09-07T04:24:06.824Z,2.03
2022-09-07T04:29:01.386Z,2.08
2022-09-07T04:31:28.020Z,2.20
2022-09-07T04:33:55.536Z,2.15
2022-09-07T04:36:24.817Z,2.10
2022-09-07T04:39:00.096Z,2.20
2022-09-07T04:41:28.873Z,2.10
2022-09-07T04:43:57.963Z,2.15
2022-09-07T04:46:30.102Z,2.08
2022-09-07T04:49:03.105Z,2.03
2022-09-07T04:51:31.729Z,2.50
2022-09-07T04:53:59.729Z,1.80
2022-09-07T04:56:26.557Z,2.25
2022-09-07T05:01:22.494Z,2.38
2022-09-07T05:03:49.456Z,2.00
2022-09-07T05:06:17.902Z,2.58
2022-09-07T05:08:46.815Z,2.38
2022-09-07T05:11:14.714Z,2.45
2022-09-07T05:14:18.131Z,1.88
2022-09-07T05:24:18.366Z,2.60
2022-09-07T05:34:29.570Z,2.65
2022-09-07T05:36:57.453Z,2.80
2022-09-07T05:40:05.246Z,2.65
2022-09-07T05:42:32.315Z,2.92
2022-09-07T05:44:59.234Z,2.97
2022-09-07T05:47:28.676Z,2.20
2022-09-07T05:57:52.155Z,2.38
2022-09-07T06:00:21.407Z,2.55
2022-09-07T06:02:48.907Z,2.70
2022-09-07T06:05:15.521Z,2.15
2022-09-07T06:07:42.036Z,2.83
2022-09-07T06:12:55.709Z,2.67
2022-09-07T06:15:22.294Z,3.10
2022-09-07T06:17:48.930Z,2.67
2022-09-07T06:20:15.521Z,2.92
2022-09-07T06:22:42.118Z,2.28
2022-09-07T06:25:14.630Z,2.53
2022-09-07T06:27:41.272Z,2.95
2022-09-07T06:30:08.379Z,3.35
2022-09-07T06:32:44.345Z,2.67
2022-09-07T06:35:11.908Z,3.00
2022-09-07T06:37:52.519Z,2.80
2022-09-07T06:40:22.972Z,3.88
2022-09-07T06:42:58.205Z,3.47
2022-09-07T06:45:24.961Z,2.78
2022-09-07T06:47:54.127Z,2.90
2022-09-07T06:50:20.666Z,3.20
2022-09-07T06:59:12.196Z,3.30
2022-09-07T07:01:38.833Z,3.17
2022-09-07T07:04:53.521Z,3.38
2022-09-07T07:07:40.765Z,3.00
2022-09-07T07:10:07.757Z,3.80
2022-09-07T07:12:52.767Z,2.92
2022-09-07T07:15:19.836Z,3.08
2022-09-07T07:17:51.942Z,2.80
2022-09-07T07:20:22.867Z,3.10
2022-09-07T07:25:19.807Z,3.05
2022-09-07T07:27:47.062Z,3.20
2022-09-07T08:04:23.008Z,3.88
2022-09-07T08:10:29.148Z,3.30
2022-09-07T08:13:03.106Z,4.07
2022-09-07T08:15:31.187Z,3.22
2022-09-07T08:21:55.373Z,3.70
2022-09-07T08:24:35.396Z,4.68
2022-09-07T08:27:02.528Z,4.10
2022-09-07T08:38:20.923Z,4.35
2022-09-07T10:52:17.055Z,4.90
2022-09-07T10:55:26.633Z,4.53
2022-09-07T10:59:01.428Z,5.38
2022-09-07T11:01:28.271Z,4.25
2022-09-07T11:04:23.066Z,5.20
2022-09-07T11:11:13.570Z,6.07
2022-09-07T11:20:34.415Z,5.22
2022-09-07T11:23:23.057Z,5.18
2022-09-07T11:26:27.183Z,5.32
2022-09-07T11:29:34.708Z,4.95
2022-09-07T11:32:17.129Z,5.80
2022-09-07T11:35:04.969Z,4.63
2022-09-07T11:37:55.677Z,5.38
2022-09-07T11:40:39.765Z,5.40
2022-09-07T11:43:38.389Z,6.03
2022-09-07T12:13:48.487Z,5.70
2022-09-07T12:45:45.199Z,5.28
2022-09-07T14:01:43.925Z,5.78
2022-09-07T14:08:02.855Z,6.57
2022-09-07T14:10:29.538Z,6.55
2022-09-07T14:13:20.744Z,5.53
2022-09-07T14:15:52.507Z,6.63
2022-09-07T14:18:29.030Z,6.30
2022-09-07T14:20:56.413Z,6.57
2022-09-07T14:23:39.447Z,6.55
2022-09-07T14:26:19.203Z,6.03
2022-09-07T14:28:49.629Z,5.65
2022-09-07T14:31:20.550Z,5.18
2022-09-07T14:33:58.745Z,6.25
2022-09-07T14:36:46.482Z,5.50
2022-09-07T14:39:15.818Z,6.28
2022-09-07T14:41:45.522Z,5.88
2022-09-07T14:44:46.291Z,6.32
2022-09-07T14:47:30.593Z,5.95
2022-09-07T14:50:06.643Z,6.75
2022-09-07T14:52:42.429Z,6.18
2022-09-07T14:55:43.108Z,6.43
2022-09-07T14:58:15.865Z,6.30
2022-09-07T15:04:01.144Z,5.80
2022-09-07T15:09:35.707Z,6.40
2022-09-07T15:12:37.803Z,6.10
2022-09-07T15:15:26.165Z,5.30
2022-09-07T15:18:04.630Z,6.30
2022-09-07T15:20:41.078Z,5.78
2022-09-07T15:23:16.361Z,5.90
2022-09-07T15:29:18.628Z,6.68
2022-09-07T15:31:59.470Z,5.43
2022-09-07T15:34:31.507Z,5.60
2022-09-07T15:37:00.886Z,6.00
2022-09-07T15:40:09.519Z,5.68
2022-09-07T15:46:26.623Z,5.85
2022-09-07T15:49:12.414Z,6.38
2022-09-07T15:52:08.491Z,6.30
2022-09-07T15:54:56.688Z,6.70
2022-09-07T16:50:47.656Z,6.00
2022-09-07T16:54:27.500Z,5.20
2022-09-07T16:56:30.365Z,5.50
2022-09-07T17:11:56.105Z,5.78
2022-09-07T17:14:22.849Z,6.00
2022-09-07T17:16:53.124Z,5.82
2022-09-07T17:19:36.821Z,6.05
2022-09-07T17:22:04.210Z,5.97
2022-09-07T17:24:32.727Z,5.70
2022-09-07T17:29:44.146Z,6.15
2022-09-07T17:32:24.795Z,6.00
2022-09-07T21:34:39.041Z,4.90
2022-09-07T21:37:08.449Z,4.15
2022-09-07T21:39:35.494Z,4.18
2022-09-07T21:44:32.304Z,3.85
2022-09-07T21:46:58.957Z,4.65
2022-09-07T21:51:52.127Z,4.05
2022-09-07T21:54:18.699Z,4.20
2022-09-07T21:56:46.805Z,4.20
2022-09-07T21:59:14.025Z,4.90
2022-09-07T22:01:41.034Z,4.72
2022-09-07T22:04:07.755Z,3.45
2022-09-07T22:06:34.757Z,3.90
2022-09-07T22:09:05.356Z,3.72
2022-09-07T22:11:32.253Z,4.22
2022-09-07T22:14:04.549Z,4.22
2022-09-07T22:16:33.235Z,3.90
2022-09-07T22:19:00.435Z,3.70
2022-09-07T22:21:28.661Z,4.88
2022-09-07T22:24:06.267Z,4.13
2022-09-07T22:26:37.817Z,3.90
2022-09-07T22:29:06.436Z,3.65
2022-09-07T22:31:35.247Z,3.80
2022-09-07T22:34:03.684Z,4.28
2022-09-07T22:36:33.057Z,3.28
2022-09-07T22:39:02.274Z,3.85
2022-09-07T22:41:31.315Z,4.13
2022-09-07T22:43:58.688Z,3.97
2022-09-07T22:46:28.461Z,3.70
2022-09-07T22:48:57.064Z,3.25
2022-09-07T22:51:25.306Z,3.72
2022-09-07T22:53:52.507Z,4.15
2022-09-07T22:56:22.042Z,3.63
2022-09-07T22:58:58.000Z,4.53
2022-09-07T23:01:32.072Z,3.38
2022-09-07T23:04:00.019Z,3.22
2022-09-07T23:06:30.883Z,3.97
2022-09-07T23:08:59.457Z,3.08
2022-09-07T23:11:27.016Z,3.85
2022-09-07T23:13:55.652Z,4.30
2022-09-07T23:16:23.243Z,3.50
2022-09-07T23:18:52.884Z,3.47
2022-09-07T23:21:19.614Z,3.70
2022-09-07T23:26:20.007Z,3.42
2022-09-07T23:28:50.310Z,3.63
2022-09-07T23:31:17.061Z,3.50
2022-09-07T23:36:10.153Z,3.50
2022-09-07T23:38:36.632Z,3.20
2022-09-07T23:41:03.070Z,3.42
2022-09-07T23:43:31.540Z,3.33
2022-09-07T23:45:59.793Z,3.60
2022-09-07T23:48:26.821Z,3.17
2022-09-07T23:50:54.179Z,3.17
2022-09-07T23:53:22.429Z,2.80
2022-09-07T23:55:50.503Z,3.20
2022-09-07T23:58:19.778Z,3.78
